createdAt,value
2022-09-12T00:01:23.396Z,12.17
2022-09-12T00:04:00.984Z,12.30
2022-09-12T00:06:35.831Z,11.73
2022-09-12T00:09:11.379Z,13.00
2022-09-12T00:11:42.054Z,11.77
2022-09-12T00:14:13.330Z,14.77
2022-09-12T00:16:41.565Z,14.20
2022-09-12T00:19:09.826Z,11.40
2022-09-12T00:21:39.205Z,11.40
2022-09-12T00:24:07.601Z,11.50
2022-09-12T00:26:34.601Z,15.57
2022-09-12T00:29:01.809Z,11.80
2022-09-12T00:31:29.022Z,12.80
2022-09-12T00:34:00.687Z,11.83
2022-09-12T00:36:29.735Z,12.23
2022-09-12T00:38:57.015Z,11.63
2022-09-12T00:41:37.439Z,12.47
2022-09-12T00:44:24.554Z,13.07
2022-09-12T00:47:19.286Z,15.90
2022-09-12T00:50:05.170Z,13.17
2022-09-12T00:52:57.940Z,11.37
2022-09-12T00:55:32.499Z,12.17
2022-09-12T00:58:24.732Z,12.53
2022-09-12T01:00:52.548Z,12.23
2022-09-12T01:03:23.105Z,12.33
2022-09-12T01:06:07.649Z,12.13
2022-09-12T01:08:39.497Z,12.87
2022-09-12T01:11:09.578Z,14.30
2022-09-12T01:13:37.522Z,13.00
2022-09-12T01:16:06.914Z,12.93
2022-09-12T01:18:45.451Z,11.93
2022-09-12T01:21:39.140Z,14.00
2022-09-12T01:24:54.393Z,16.07
2022-09-12T01:27:43.223Z,16.50
2022-09-12T01:30:28.551Z,14.37
2022-09-12T01:33:24.243Z,15.77
2022-09-12T01:36:28.356Z,15.87
2022-09-12T01:39:01.449Z,17.33
2022-09-12T01:41:54.542Z,16.80
2022-09-12T01:45:26.167Z,14.37
2022-09-12T01:48:16.256Z,13.53
2022-09-12T01:51:26.688Z,16.23
2022-09-12T01:54:05.102Z,16.93
2022-09-12T01:56:38.963Z,18.47
2022-09-12T01:59:17.519Z,16.53
2022-09-12T02:01:56.316Z,14.83
2022-09-12T02:04:34.757Z,17.73
2022-09-12T02:07:14.826Z,15.37
2022-09-12T02:09:54.177Z,14.40
2022-09-12T02:12:31.678Z,15.20
2022-09-12T02:15:08.791Z,15.10
2022-09-12T02:17:44.221Z,14.37
2022-09-12T02:20:49.539Z,15.03
2022-09-12T02:23:34.744Z,12.93
2022-09-12T02:26:12.980Z,12.57
2022-09-12T02:28:43.603Z,14.10
2022-09-12T02:31:33.438Z,15.47
2022-09-12T02:34:44.308Z,15.40
2022-09-12T02:38:00.509Z,13.40
2022-09-12T02:40:29.193Z,15.17
2022-09-12T02:42:56.966Z,16.20
2022-09-12T02:45:24.106Z,14.87
2022-09-12T02:48:14.918Z,16.83
2022-09-12T02:50:43.569Z,16.73
2022-09-12T02:53:11.533Z,18.10
2022-09-12T02:55:41.762Z,15.87
2022-09-12T02:58:19.654Z,14.50
2022-09-12T03:01:11.275Z,14.80
2022-09-12T03:04:13.487Z,15.90
2022-09-12T03:07:20.723Z,17.07
2022-09-12T03:10:34.277Z,15.37
2022-09-12T03:13:28.192Z,14.70
2022-09-12T03:16:34.624Z,19.47
2022-09-12T03:19:47.530Z,17.80
2022-09-12T03:22:56.779Z,15.20
2022-09-12T03:25:43.974Z,16.83
2022-09-12T03:28:18.218Z,16.77
2022-09-12T03:30:48.939Z,16.67
2022-09-12T03:33:22.449Z,15.57
2022-09-12T03:35:51.279Z,16.40
2022-09-12T03:38:19.244Z,18.43
2022-09-12T03:40:50.290Z,19.50
2022-09-12T03:43:22.656Z,16.23
2022-09-12T03:45:53.480Z,17.80
2022-09-12T03:48:21.043Z,17.03
2022-09-12T03:50:48.372Z,19.47
2022-09-12T03:53:17.333Z,18.70
2022-09-12T03:55:44.998Z,17.40
2022-09-12T03:58:12.297Z,17.23
2022-09-12T04:00:44.350Z,16.43
2022-09-12T04:03:11.599Z,17.53
2022-09-12T04:05:39.358Z,17.67
2022-09-12T04:08:07.260Z,19.13
2022-09-12T04:10:34.717Z,15.80
2022-09-12T04:13:02.169Z,15.67
2022-09-12T04:15:29.544Z,15.90
2022-09-12T04:17:57.053Z,16.13
2022-09-12T04:20:24.507Z,17.53
2022-09-12T04:22:51.811Z,26.80
2022-09-12T04:25:19.594Z,17.00
2022-09-12T04:27:47.358Z,15.97
2022-09-12T04:30:14.778Z,16.73
2022-09-12T04:32:42.602Z,18.33
2022-09-12T04:35:11.499Z,17.03
2022-09-12T04:37:39.355Z,17.13
2022-09-12T04:40:08.078Z,16.87
2022-09-12T04:42:35.053Z,15.93
2022-09-12T04:45:09.418Z,14.80
2022-09-12T04:47:36.808Z,17.53
2022-09-12T04:50:05.395Z,17.57
2022-09-12T04:52:33.587Z,16.10
2022-09-12T04:55:00.492Z,16.00
2022-09-12T04:57:27.998Z,15.20
2022-09-12T04:59:54.906Z,18.33
2022-09-12T05:02:21.986Z,17.63
2022-09-12T05:04:49.725Z,16.33
2022-09-12T05:07:16.717Z,16.87
2022-09-12T05:09:43.611Z,16.97
2022-09-12T05:12:11.372Z,17.73
2022-09-12T05:14:38.348Z,17.70
2022-09-12T05:17:06.062Z,17.77
2022-09-12T05:19:36.901Z,20.37
2022-09-12T05:22:05.040Z,14.67
2022-09-12T05:24:32.911Z,16.63
2022-09-12T05:27:03.411Z,16.60
2022-09-12T05:29:31.075Z,16.43
2022-09-12T05:31:58.012Z,16.87
2022-09-12T05:34:28.273Z,16.23
2022-09-12T05:36:55.243Z,14.87
2022-09-12T05:39:22.240Z,17.67
2022-09-12T05:41:49.557Z,14.20
2022-09-12T05:44:16.503Z,17.50
2022-09-12T05:46:45.493Z,16.93
2022-09-12T05:49:14.369Z,16.07
2022-09-12T05:51:45.415Z,16.03
2022-09-12T05:54:17.834Z,16.00
2022-09-12T05:56:45.417Z,16.67
2022-09-12T05:59:21.431Z,16.93
2022-09-12T06:01:49.358Z,15.13
2022-09-12T06:04:17.289Z,16.83
2022-09-12T06:06:45.977Z,16.03
2022-09-12T06:09:17.104Z,18.67
2022-09-12T06:11:46.353Z,17.73
2022-09-12T06:14:16.038Z,15.47
2022-09-12T06:16:43.765Z,15.73
2022-09-12T06:19:20.662Z,14.33
2022-09-12T06:21:49.717Z,15.00
2022-09-12T06:24:19.061Z,15.83
2022-09-12T06:26:47.673Z,15.03
2022-09-12T06:29:15.468Z,16.07
2022-09-12T06:31:44.146Z,14.17
2022-09-12T06:34:17.038Z,14.33
2022-09-12T06:36:47.731Z,15.27
2022-09-12T06:39:22.198Z,14.20
2022-09-12T06:41:52.029Z,13.53
2022-09-12T06:44:29.753Z,14.37
2022-09-12T06:46:58.705Z,14.33
2022-09-12T06:49:25.701Z,13.57
2022-09-12T06:51:52.645Z,15.73
2022-09-12T06:54:20.322Z,16.70
2022-09-12T06:56:50.080Z,14.63
2022-09-12T06:59:17.109Z,15.93
2022-09-12T07:01:44.406Z,15.70
2022-09-12T07:04:11.545Z,16.87
2022-09-12T07:06:42.102Z,16.20
2022-09-12T07:09:13.907Z,16.60
2022-09-12T07:11:42.792Z,13.25
2022-09-12T07:14:13.978Z,16.00
2022-09-12T07:16:41.572Z,14.20
2022-09-12T07:19:09.625Z,14.00
2022-09-12T07:21:39.786Z,16.05
2022-09-12T07:24:11.598Z,14.73
2022-09-12T07:26:40.606Z,16.08
2022-09-12T07:29:35.344Z,15.18
2022-09-12T07:31:57.647Z,14.97
2022-09-12T07:34:24.528Z,16.83
2022-09-12T07:36:51.497Z,15.40
2022-09-12T07:39:18.400Z,15.52
2022-09-12T07:41:45.748Z,17.27
2022-09-12T07:44:12.745Z,16.48
2022-09-12T07:46:40.200Z,17.17
2022-09-12T07:49:08.562Z,16.60
2022-09-12T07:51:35.938Z,16.17
2022-09-12T07:54:07.155Z,16.23
2022-09-12T07:56:38.918Z,15.68
2022-09-12T07:59:07.430Z,16.13
2022-09-12T08:01:34.694Z,15.40
2022-09-12T08:04:02.091Z,14.35
2022-09-12T08:06:36.598Z,14.73
2022-09-12T08:09:07.804Z,13.40
2022-09-12T08:11:35.437Z,12.90
2022-09-12T08:14:05.514Z,12.63
2022-09-12T08:16:35.561Z,12.07
2022-09-12T08:19:04.066Z,12.75
2022-09-12T08:21:33.198Z,12.10
2022-09-12T08:24:03.892Z,12.02
2022-09-12T08:26:35.407Z,12.85
2022-09-12T08:29:03.767Z,11.48
2022-09-12T08:31:36.731Z,11.25
2022-09-12T08:34:07.916Z,10.88
2022-09-12T08:36:35.624Z,10.95
2022-09-12T08:39:06.507Z,10.25
2022-09-12T08:41:55.897Z,8.80
2022-09-12T08:44:45.954Z,9.23
2022-09-12T08:47:39.227Z,9.00
2022-09-12T08:50:09.544Z,9.05
2022-09-12T08:53:03.453Z,11.02
2022-09-12T08:55:42.068Z,8.98
2022-09-12T08:58:22.748Z,7.32
2022-09-12T09:01:42.554Z,7.90
2022-09-12T09:04:38.000Z,7.18
2022-09-12T09:07:42.621Z,8.82
2022-09-12T09:10:24.262Z,7.85
2022-09-12T09:13:51.729Z,7.10
2022-09-12T09:16:36.567Z,6.72
2022-09-12T09:19:31.198Z,6.75
2022-09-12T09:22:12.567Z,8.57
2022-09-12T09:25:07.996Z,6.20
2022-09-12T09:27:48.933Z,6.07
2022-09-12T09:30:21.544Z,7.07
2022-09-12T09:32:57.562Z,6.40
2022-09-12T09:35:44.831Z,6.55
2022-09-12T09:38:56.078Z,5.43
2022-09-12T09:42:23.903Z,4.82
2022-09-12T09:44:56.015Z,6.47
2022-09-12T09:47:23.063Z,5.80
2022-09-12T09:49:50.004Z,6.32
2022-09-12T09:52:26.466Z,5.85
2022-09-12T09:55:01.609Z,5.72
2022-09-12T09:57:34.713Z,5.25
2022-09-12T10:00:27.871Z,5.07
2022-09-12T10:03:14.325Z,4.43
2022-09-12T10:05:52.981Z,4.40
2022-09-12T10:08:36.396Z,5.40
2022-09-12T10:11:15.438Z,4.38
2022-09-12T10:13:54.581Z,4.38
2022-09-12T10:16:25.264Z,3.65
2022-09-12T10:18:53.524Z,3.55
2022-09-12T10:21:41.432Z,3.40
2022-09-12T10:24:29.570Z,3.55
2022-09-12T10:27:08.711Z,3.03
2022-09-12T10:30:00.972Z,4.75
2022-09-12T10:32:36.088Z,3.50
2022-09-12T10:35:19.485Z,3.47
2022-09-12T10:38:00.580Z,2.90
2022-09-12T10:40:34.024Z,3.90
2022-09-12T10:43:02.955Z,3.30
2022-09-12T10:45:37.418Z,3.13
2022-09-12T10:48:32.134Z,3.03
2022-09-12T10:51:01.044Z,2.47
2022-09-12T10:53:40.399Z,3.28
2022-09-12T10:56:44.628Z,3.10
2022-09-12T11:00:02.278Z,2.90
2022-09-12T11:03:02.750Z,2.60
2022-09-12T11:05:58.323Z,2.60
2022-09-12T11:09:03.678Z,3.63
2022-09-12T11:11:59.055Z,3.00
2022-09-12T11:15:02.332Z,2.72
2022-09-12T11:18:34.834Z,2.88
2022-09-12T11:21:45.128Z,2.83
2022-09-12T11:24:34.739Z,3.60
2022-09-12T11:27:32.211Z,2.05
2022-09-12T11:30:12.341Z,3.10
2022-09-12T11:33:20.500Z,1.77
2022-09-12T11:35:55.504Z,2.22
2022-09-12T11:38:49.540Z,4.53
2022-09-12T11:41:31.393Z,3.42
2022-09-12T11:44:25.966Z,1.67
2022-09-12T11:46:52.959Z,2.25
2022-09-12T11:49:27.259Z,1.73
2022-09-12T11:52:20.407Z,2.20
2022-09-12T11:55:17.157Z,2.90
2022-09-12T11:57:58.591Z,1.77
2022-09-12T12:00:58.476Z,1.70
2022-09-12T12:03:45.429Z,1.83
2022-09-12T12:06:29.454Z,2.35
2022-09-12T12:08:57.329Z,1.95
2022-09-12T12:11:35.807Z,2.30
2022-09-12T12:14:12.495Z,1.90
2022-09-12T12:16:41.601Z,2.30
2022-09-12T12:19:14.226Z,1.90
2022-09-12T12:21:50.853Z,2.60
2022-09-12T12:24:25.488Z,2.00
2022-09-12T12:27:00.251Z,2.30
2022-09-12T12:29:44.104Z,1.60
2022-09-12T12:32:11.485Z,2.75
2022-09-12T12:34:44.452Z,1.88
2022-09-12T12:37:20.537Z,1.60
2022-09-12T12:39:51.015Z,1.70
2022-09-12T12:42:33.589Z,1.80
2022-09-12T12:45:26.564Z,1.55
2022-09-12T12:48:10.083Z,2.55
2022-09-12T12:50:37.548Z,2.42
2022-09-12T12:53:24.823Z,1.58
2022-09-12T12:55:56.468Z,1.40
2022-09-12T12:58:37.208Z,1.70
2022-09-12T13:01:09.577Z,1.50
2022-09-12T13:03:39.017Z,1.75
2022-09-12T13:06:21.837Z,1.35
2022-09-12T13:09:02.770Z,1.80
2022-09-12T13:11:38.464Z,3.15
2022-09-12T13:14:27.895Z,1.40
2022-09-12T13:17:01.985Z,2.25
2022-09-12T13:19:34.184Z,1.48
2022-09-12T13:22:10.367Z,2.22
2022-09-12T13:24:49.256Z,1.50
2022-09-12T13:27:21.735Z,1.58
2022-09-12T13:29:49.278Z,1.10
2022-09-12T13:32:18.374Z,1.90
2022-09-12T13:35:35.518Z,1.50
2022-09-12T13:38:50.390Z,1.50
2022-09-12T13:41:51.424Z,1.67
2022-09-12T13:44:23.138Z,1.70
2022-09-12T13:46:52.421Z,1.50
2022-09-12T13:49:35.306Z,1.40
2022-09-12T13:52:09.985Z,2.58
2022-09-12T13:54:39.115Z,1.20
2022-09-12T13:57:06.538Z,1.30
2022-09-12T13:59:43.076Z,1.20
2022-09-12T14:02:24.252Z,1.40
2022-09-12T14:05:18.120Z,1.23
2022-09-12T14:08:04.606Z,1.20
2022-09-12T14:10:37.274Z,1.98
2022-09-12T14:13:12.967Z,1.50
2022-09-12T14:15:45.550Z,1.40
2022-09-12T14:18:25.068Z,1.40
2022-09-12T14:20:57.003Z,1.30
2022-09-12T14:23:33.290Z,1.83
2022-09-12T14:26:06.560Z,1.90
2022-09-12T14:28:35.193Z,1.33
2022-09-12T14:31:21.934Z,1.17
2022-09-12T14:34:11.402Z,1.50
2022-09-12T14:36:56.154Z,1.40
2022-09-12T14:39:39.873Z,1.40
2022-09-12T14:42:19.175Z,1.92
2022-09-12T14:45:02.243Z,1.40
2022-09-12T14:47:40.758Z,1.45
2022-09-12T14:50:26.586Z,1.30
2022-09-12T14:53:20.906Z,1.20
2022-09-12T14:56:07.802Z,1.50
2022-09-12T14:58:36.177Z,1.30
2022-09-12T15:01:05.904Z,1.50
2022-09-12T15:03:53.376Z,1.50
2022-09-12T15:06:39.393Z,1.50
2022-09-12T15:09:13.333Z,1.55
2022-09-12T15:11:40.274Z,1.67
2022-09-12T15:14:16.776Z,1.23
2022-09-12T15:16:43.806Z,1.50
2022-09-12T15:19:12.106Z,1.30
2022-09-12T15:21:39.044Z,1.40
2022-09-12T15:24:06.188Z,1.38
2022-09-12T15:26:33.316Z,1.38
2022-09-12T15:29:00.186Z,1.77
2022-09-12T15:31:32.617Z,1.42
2022-09-12T15:34:03.010Z,1.50
2022-09-12T15:36:30.068Z,1.38
2022-09-12T15:38:57.453Z,2.00
2022-09-12T15:41:36.953Z,1.33
2022-09-12T15:44:08.071Z,1.67
2022-09-12T15:46:35.202Z,1.35
2022-09-12T15:49:02.304Z,1.60
2022-09-12T15:51:29.402Z,1.40
2022-09-12T15:53:56.457Z,1.55
2022-09-12T15:56:23.647Z,1.60
2022-09-12T15:58:58.884Z,1.05
2022-09-12T16:01:28.761Z,1.42
2022-09-12T16:03:56.866Z,2.38
2022-09-12T16:06:24.850Z,1.40
2022-09-12T16:08:51.856Z,1.60
2022-09-12T16:11:28.020Z,1.33
2022-09-12T16:13:57.736Z,1.42
2022-09-12T16:16:24.730Z,1.45
2022-09-12T16:18:52.165Z,1.30
2022-09-12T16:21:19.241Z,1.38
2022-09-12T16:23:48.414Z,1.33
2022-09-12T16:26:16.604Z,1.42
2022-09-12T16:28:43.942Z,1.50
2022-09-12T16:31:13.847Z,1.27
2022-09-12T16:33:41.333Z,1.40
2022-09-12T16:36:15.231Z,1.55
2022-09-12T16:38:45.106Z,1.40
2022-09-12T16:41:13.432Z,1.70
2022-09-12T16:43:40.933Z,1.55
2022-09-12T16:46:18.071Z,2.85
2022-09-12T16:48:52.608Z,2.03
2022-09-12T16:51:27.360Z,2.38
2022-09-12T16:53:55.790Z,1.90
2022-09-12T16:56:23.916Z,3.30
2022-09-12T16:58:51.853Z,4.15
2022-09-12T17:01:25.568Z,2.72
2022-09-12T17:03:55.236Z,2.55
2022-09-12T17:06:23.139Z,2.55
2022-09-12T17:08:52.860Z,2.65
2022-09-12T17:11:27.056Z,1.95
2022-09-12T17:14:05.752Z,2.22
2022-09-12T17:16:40.589Z,3.58
2022-09-12T17:19:09.159Z,4.32
2022-09-12T17:21:36.404Z,2.55
2022-09-12T17:24:04.056Z,2.53
2022-09-12T17:26:31.051Z,2.17
2022-09-12T17:28:58.063Z,3.38
2022-09-12T17:31:25.274Z,2.85
2022-09-12T17:34:01.356Z,1.88
2022-09-12T17:36:31.523Z,3.08
2022-09-12T17:38:59.577Z,3.08
2022-09-12T17:41:31.717Z,3.55
2022-09-12T17:44:01.740Z,3.97
2022-09-12T17:46:42.689Z,3.28
2022-09-12T17:49:18.538Z,3.05
2022-09-12T17:51:45.546Z,2.88
2022-09-12T17:54:18.746Z,3.38
2022-09-12T17:56:49.796Z,4.78
2022-09-12T17:59:21.578Z,4.25
2022-09-12T18:02:07.367Z,3.88
2022-09-12T18:04:34.503Z,3.67
2022-09-12T18:07:01.857Z,4.30
2022-09-12T18:09:29.292Z,4.00
2022-09-12T18:11:56.976Z,4.30
2022-09-12T18:14:27.635Z,5.78
2022-09-12T18:16:57.194Z,3.30
2022-09-12T18:19:24.850Z,3.03
2022-09-12T18:21:52.099Z,6.40
2022-09-12T18:24:19.107Z,5.00
2022-09-12T18:26:46.186Z,3.08
2022-09-12T18:29:17.543Z,4.57
2022-09-12T18:31:46.001Z,3.17
2022-09-12T18:34:13.848Z,3.78
2022-09-12T18:36:47.167Z,3.40
2022-09-12T18:39:15.385Z,3.25
2022-09-12T18:41:42.879Z,2.92
2022-09-12T18:44:13.039Z,3.75
2022-09-12T18:46:40.450Z,2.88
2022-09-12T18:49:09.254Z,3.03
2022-09-12T18:51:37.375Z,5.70
2022-09-12T18:54:11.533Z,3.80
2022-09-12T18:56:40.887Z,3.75
2022-09-12T18:59:09.844Z,3.65
2022-09-12T19:01:38.649Z,4.20
2022-09-12T19:04:08.947Z,4.25
2022-09-12T19:06:42.629Z,4.55
2022-09-12T19:09:12.442Z,3.38
2022-09-12T19:11:48.625Z,7.65
2022-09-12T19:14:24.867Z,2.83
2022-09-12T19:16:53.384Z,3.33
2022-09-12T19:19:21.489Z,4.30
2022-09-12T19:21:48.609Z,4.78
2022-09-12T19:24:16.979Z,3.70
2022-09-12T19:26:44.771Z,3.63
2022-09-12T19:29:14.725Z,3.47
2022-09-12T19:31:42.316Z,4.90
2022-09-12T19:34:11.562Z,3.28
2022-09-12T19:36:47.563Z,3.70
2022-09-12T19:39:19.582Z,6.90
2022-09-12T19:41:47.075Z,3.67
2022-09-12T19:44:14.383Z,4.45
2022-09-12T19:46:41.709Z,4.13
2022-09-12T19:49:11.741Z,5.70
2022-09-12T19:51:39.030Z,4.47
2022-09-12T19:54:07.658Z,4.72
2022-09-12T19:56:34.838Z,4.45
2022-09-12T19:59:01.811Z,4.20
2022-09-12T20:01:29.111Z,4.43
2022-09-12T20:03:58.346Z,5.53
2022-09-12T20:06:26.497Z,4.40
2022-09-12T20:08:54.110Z,3.53
2022-09-12T20:11:23.715Z,4.03
2022-09-12T20:13:51.888Z,4.53
2022-09-12T20:16:24.535Z,4.40
2022-09-12T20:19:06.904Z,2.90
2022-09-12T20:21:37.241Z,3.40
2022-09-12T20:24:11.955Z,3.83
2022-09-12T20:26:40.226Z,4.45
2022-09-12T20:29:07.880Z,5.97
2022-09-12T20:31:37.729Z,6.13
2022-09-12T20:34:07.443Z,4.82
2022-09-12T20:36:34.636Z,5.38
2022-09-12T20:39:03.990Z,3.88
2022-09-12T20:41:36.025Z,2.97
2022-09-12T20:44:03.453Z,3.20
2022-09-12T20:46:31.274Z,4.03
2022-09-12T20:49:01.187Z,4.75
2022-09-12T20:51:42.174Z,3.10
2022-09-12T20:54:14.851Z,3.70
2022-09-12T20:56:42.915Z,3.95
2022-09-12T20:59:19.152Z,3.70
2022-09-12T21:02:06.354Z,2.80
2022-09-12T21:04:54.676Z,3.63
2022-09-12T21:07:21.753Z,2.90
2022-09-12T21:09:48.663Z,2.88
2022-09-12T21:12:15.611Z,4.07
2022-09-12T21:14:42.460Z,3.03
2022-09-12T21:17:09.449Z,3.22
2022-09-12T21:19:36.324Z,3.40
2022-09-12T21:22:03.283Z,3.53
2022-09-12T21:24:30.160Z,4.38
2022-09-12T21:27:00.929Z,2.90
2022-09-12T21:29:30.568Z,3.03
2022-09-12T21:31:57.458Z,3.10
2022-09-12T21:34:24.432Z,3.65
2022-09-12T21:36:51.408Z,3.20
2022-09-12T21:39:18.637Z,3.38
2022-09-12T21:41:45.546Z,4.18
2022-09-12T21:44:12.507Z,3.42
2022-09-12T21:46:39.503Z,3.00
2022-09-12T21:49:06.673Z,3.95
2022-09-12T21:51:33.756Z,5.13
2022-09-12T21:54:00.739Z,3.92
2022-09-12T21:56:27.732Z,4.70
2022-09-12T21:58:54.674Z,3.28
2022-09-12T22:01:21.617Z,3.25
2022-09-12T22:03:49.452Z,4.93
2022-09-12T22:06:18.625Z,3.00
2022-09-12T22:08:48.870Z,5.82
2022-09-12T22:11:15.733Z,3.38
2022-09-12T22:13:43.785Z,3.38
2022-09-12T22:16:11.443Z,3.47
2022-09-12T22:18:38.879Z,4.45
2022-09-12T22:21:15.795Z,3.78
2022-09-12T22:24:01.023Z,4.20
2022-09-12T22:26:30.484Z,3.20
2022-09-12T22:28:57.788Z,3.90
2022-09-12T22:31:24.865Z,3.17
2022-09-12T22:33:51.917Z,4.05
2022-09-12T22:36:18.846Z,3.10
2022-09-12T22:38:45.812Z,3.33
2022-09-12T22:41:13.266Z,3.67
2022-09-12T22:43:40.788Z,5.25
2022-09-12T22:46:10.406Z,3.22
2022-09-12T22:48:38.110Z,5.05
2022-09-12T22:51:06.078Z,3.13
2022-09-12T22:53:34.321Z,5.00
2022-09-12T22:56:01.834Z,2.92
2022-09-12T22:58:28.981Z,4.28
2022-09-12T23:00:56.046Z,4.18
2022-09-12T23:03:23.632Z,5.78
2022-09-12T23:05:50.677Z,3.58
2022-09-12T23:08:19.325Z,3.20
2022-09-12T23:10:46.783Z,3.47
2022-09-12T23:13:14.029Z,3.30
2022-09-12T23:15:41.195Z,3.10
2022-09-12T23:18:08.479Z,5.50
2022-09-12T23:20:35.488Z,3.72
2022-09-12T23:23:04.804Z,3.53
2022-09-12T23:25:31.825Z,3.72
2022-09-12T23:27:58.803Z,3.30
2022-09-12T23:30:25.788Z,3.88
2022-09-12T23:32:52.731Z,4.32
2022-09-12T23:35:19.882Z,5.55
2022-09-12T23:37:47.742Z,3.53
2022-09-12T23:40:14.926Z,4.57
2022-09-12T23:42:41.989Z,3.20
2022-09-12T23:45:10.349Z,3.17
2022-09-12T23:47:38.496Z,3.15
2022-09-12T23:50:06.059Z,4.05
2022-09-12T23:52:32.990Z,3.28
2022-09-12T23:55:01.448Z,4.05
2022-09-12T23:57:28.558Z,3.95
2022-09-12T23:59:55.860Z,3.20
